createdAt,value
2022-12-24T00:00:02.215Z,22.43
2022-12-24T00:02:28.860Z,11.07
2022-12-24T00:05:00.645Z,18.03
2022-12-24T00:07:27.729Z,20.43
2022-12-24T00:09:54.286Z,8.03
2022-12-24T00:12:20.909Z,11.57
2022-12-24T00:14:47.439Z,14.50
2022-12-24T00:17:14.176Z,15.53
2022-12-24T00:19:40.823Z,14.43
2022-12-24T00:22:07.411Z,11.33
2022-12-24T00:24:33.991Z,12.63
2022-12-24T00:27:00.985Z,8.67
2022-12-24T00:29:27.554Z,13.70
2022-12-24T00:31:54.101Z,7.63
2022-12-24T00:34:23.236Z,12.07
2022-12-24T00:36:49.830Z,16.13
2022-12-24T00:39:16.952Z,8.90
2022-12-24T00:41:43.574Z,16.80
2022-12-24T00:44:10.218Z,10.30
2022-12-24T00:46:39.112Z,9.90
2022-12-24T00:49:07.499Z,11.57
2022-12-24T00:51:35.604Z,6.80
2022-12-24T00:54:02.733Z,8.23
2022-12-24T00:56:29.797Z,14.57
2022-12-24T00:58:56.570Z,8.33
2022-12-24T01:01:24.103Z,11.77
2022-12-24T01:03:51.816Z,11.87
2022-12-24T01:06:22.177Z,9.33
2022-12-24T01:08:52.346Z,15.63
2022-12-24T01:11:19.463Z,16.53
2022-12-24T01:13:46.027Z,15.37
2022-12-24T01:16:19.419Z,7.50
2022-12-24T01:18:46.498Z,18.77
2022-12-24T01:21:13.168Z,10.33
2022-12-24T01:23:39.737Z,6.43
2022-12-24T01:26:06.553Z,8.40
2022-12-24T01:28:34.042Z,8.00
2022-12-24T01:31:00.855Z,9.93
2022-12-24T01:33:30.635Z,10.53
2022-12-24T01:35:57.280Z,21.27
2022-12-24T01:38:23.851Z,17.40
2022-12-24T01:41:08.940Z,12.33
2022-12-24T01:43:35.590Z,11.70
2022-12-24T01:46:11.856Z,15.83
2022-12-24T01:48:49.722Z,8.27
2022-12-24T01:51:35.639Z,6.57
2022-12-24T01:54:08.304Z,31.27
2022-12-24T01:56:40.087Z,8.53
2022-12-24T01:59:10.315Z,11.20
2022-12-24T02:01:37.196Z,12.20
2022-12-24T02:04:19.549Z,15.73
2022-12-24T02:06:46.169Z,17.60
2022-12-24T02:09:12.796Z,20.17
2022-12-24T02:11:43.866Z,11.33
2022-12-24T02:14:12.211Z,13.63
2022-12-24T02:17:07.803Z,10.20
2022-12-24T02:20:13.005Z,8.57
2022-12-24T02:22:58.250Z,11.80
2022-12-24T02:25:51.514Z,8.50
2022-12-24T02:28:41.514Z,6.83
2022-12-24T02:31:21.304Z,7.67
2022-12-24T02:33:54.449Z,15.03
2022-12-24T02:36:40.036Z,7.50
2022-12-24T02:39:20.734Z,10.60
2022-12-24T02:42:07.177Z,13.27
2022-12-24T02:44:39.756Z,13.50
2022-12-24T02:47:08.261Z,4.13
2022-12-24T02:49:35.923Z,9.10
2022-12-24T02:52:02.748Z,7.33
2022-12-24T02:54:29.804Z,7.73
2022-12-24T02:57:28.596Z,6.80
2022-12-24T03:00:00.169Z,10.20
2022-12-24T03:02:44.880Z,9.67
2022-12-24T03:05:28.204Z,7.17
2022-12-24T03:08:12.260Z,5.60
2022-12-24T03:11:00.283Z,8.13
2022-12-24T03:13:28.023Z,7.20
2022-12-24T03:15:54.654Z,6.40
2022-12-24T03:18:24.995Z,8.40
2022-12-24T03:21:00.544Z,6.33
2022-12-24T03:23:27.449Z,6.70
2022-12-24T03:25:54.532Z,6.67
2022-12-24T03:28:26.055Z,7.67
2022-12-24T03:30:52.862Z,4.47
2022-12-24T03:33:19.472Z,10.77
2022-12-24T03:35:46.545Z,4.73
2022-12-24T03:38:13.237Z,4.37
2022-12-24T03:40:39.808Z,6.20
2022-12-24T03:43:06.334Z,10.10
2022-12-24T03:45:32.971Z,3.80
2022-12-24T03:47:59.594Z,6.50
2022-12-24T03:50:26.156Z,6.80
2022-12-24T03:52:53.993Z,10.40
2022-12-24T03:55:20.559Z,4.73
2022-12-24T03:57:47.163Z,5.03
2022-12-24T04:00:14.324Z,3.27
2022-12-24T04:02:41.350Z,6.20
2022-12-24T04:05:13.244Z,5.13
2022-12-24T04:07:39.779Z,6.70
2022-12-24T04:10:06.886Z,5.23
2022-12-24T04:12:33.472Z,5.13
2022-12-24T04:15:00.017Z,5.30
2022-12-24T04:17:26.754Z,6.00
2022-12-24T04:19:53.359Z,5.50
2022-12-24T04:22:19.932Z,7.70
2022-12-24T04:24:46.979Z,6.83
2022-12-24T04:27:14.940Z,8.73
2022-12-24T04:29:41.486Z,12.23
2022-12-24T04:32:10.326Z,6.87
2022-12-24T04:34:37.873Z,5.80
2022-12-24T04:37:04.524Z,5.17
2022-12-24T04:39:31.054Z,5.50
2022-12-24T04:41:57.633Z,8.60
2022-12-24T04:44:24.278Z,5.60
2022-12-24T04:46:50.829Z,3.67
2022-12-24T04:49:17.631Z,10.73
2022-12-24T04:51:44.187Z,10.13
2022-12-24T04:54:10.798Z,6.23
2022-12-24T04:56:37.509Z,9.43
2022-12-24T04:59:04.068Z,5.13
2022-12-24T05:01:32.628Z,8.33
2022-12-24T05:03:59.679Z,8.57
2022-12-24T05:06:30.672Z,12.70
2022-12-24T05:08:58.009Z,13.70
2022-12-24T05:11:25.082Z,5.43
2022-12-24T05:13:52.076Z,13.07
2022-12-24T05:16:20.639Z,11.63
2022-12-24T05:18:47.585Z,6.87
2022-12-24T05:21:17.319Z,14.40
2022-12-24T05:24:02.932Z,10.93
2022-12-24T05:26:34.727Z,14.98
2022-12-24T05:29:02.574Z,10.20
2022-12-24T05:31:30.796Z,5.83
2022-12-24T05:33:57.404Z,14.37
2022-12-24T05:36:24.510Z,15.33
2022-12-24T05:38:51.540Z,11.00
2022-12-24T05:41:18.850Z,16.37
2022-12-24T05:43:45.464Z,6.20
2022-12-24T05:46:15.107Z,7.03
2022-12-24T05:48:41.882Z,13.57
2022-12-24T05:51:12.028Z,18.83
2022-12-24T05:53:39.561Z,8.97
2022-12-24T05:56:12.154Z,9.60
2022-12-24T05:58:39.758Z,11.40
2022-12-24T06:01:07.638Z,19.97
2022-12-24T06:03:35.206Z,8.07
2022-12-24T06:06:08.309Z,15.67
2022-12-24T06:08:36.183Z,17.47
2022-12-24T06:11:04.952Z,8.90
2022-12-24T06:13:31.940Z,19.90
2022-12-24T06:16:00.287Z,16.07
2022-12-24T06:18:28.496Z,13.67
2022-12-24T06:20:57.165Z,12.43
2022-12-24T06:23:24.247Z,17.27
2022-12-24T06:25:51.481Z,16.07
2022-12-24T06:28:18.889Z,8.23
2022-12-24T06:30:50.289Z,17.50
2022-12-24T06:33:17.877Z,11.17
2022-12-24T06:35:46.202Z,8.70
2022-12-24T06:38:13.896Z,14.13
2022-12-24T06:40:42.909Z,21.53
2022-12-24T06:43:09.997Z,10.17
2022-12-24T06:45:36.931Z,10.73
2022-12-24T06:48:03.971Z,17.20
2022-12-24T06:50:30.599Z,16.50
2022-12-24T06:52:57.202Z,9.17
2022-12-24T06:55:23.791Z,13.30
2022-12-24T06:57:50.661Z,13.43
2022-12-24T07:00:17.598Z,13.37
2022-12-24T07:02:45.212Z,13.00
2022-12-24T07:05:12.702Z,14.03
2022-12-24T07:07:41.325Z,16.80
2022-12-24T07:10:10.749Z,12.47
2022-12-24T07:12:37.588Z,12.57
2022-12-24T07:15:04.848Z,13.77
2022-12-24T07:17:31.466Z,17.60
2022-12-24T07:19:58.109Z,7.40
2022-12-24T07:22:24.731Z,16.37
2022-12-24T07:24:51.331Z,12.20
2022-12-24T07:27:17.894Z,17.03
2022-12-24T07:29:44.519Z,29.60
2022-12-24T07:32:11.159Z,17.03
2022-12-24T07:34:39.542Z,18.97
2022-12-24T07:37:07.090Z,8.50
2022-12-24T07:39:33.702Z,7.70
2022-12-24T07:42:00.496Z,13.27
2022-12-24T07:44:27.105Z,14.83
2022-12-24T07:46:53.775Z,13.43
2022-12-24T07:49:20.425Z,18.03
2022-12-24T07:51:46.986Z,6.70
2022-12-24T07:54:14.655Z,14.63
2022-12-24T07:56:42.471Z,15.57
2022-12-24T07:59:12.181Z,13.97
2022-12-24T08:01:38.841Z,12.03
2022-12-24T08:04:05.600Z,9.47
2022-12-24T08:06:32.224Z,8.70
2022-12-24T08:08:58.799Z,14.27
2022-12-24T08:11:25.389Z,17.03
2022-12-24T08:13:51.941Z,17.90
2022-12-24T08:16:18.716Z,12.20
2022-12-24T08:18:45.305Z,12.53
2022-12-24T08:21:11.875Z,12.80
2022-12-24T08:23:38.892Z,12.07
2022-12-24T08:26:10.189Z,13.83
2022-12-24T08:28:37.595Z,13.57
2022-12-24T08:31:04.308Z,18.67
2022-12-24T08:33:32.117Z,7.90
2022-12-24T08:36:00.831Z,9.07
2022-12-24T08:38:27.399Z,19.10
2022-12-24T08:40:54.871Z,11.67
2022-12-24T08:43:21.840Z,17.07
2022-12-24T08:45:50.259Z,24.03
2022-12-24T08:48:17.590Z,18.70
2022-12-24T08:50:44.482Z,11.70
2022-12-24T08:53:11.743Z,10.93
2022-12-24T08:55:39.568Z,16.57
2022-12-24T08:58:06.186Z,11.83
2022-12-24T09:00:32.969Z,10.47
2022-12-24T09:02:59.657Z,22.47
2022-12-24T09:05:26.393Z,14.00
2022-12-24T09:07:53.058Z,12.43
2022-12-24T09:10:19.904Z,13.03
2022-12-24T09:12:46.570Z,15.80
2022-12-24T09:15:14.227Z,15.20
2022-12-24T09:17:41.228Z,21.77
2022-12-24T09:20:08.798Z,8.50
2022-12-24T09:22:39.935Z,10.83
2022-12-24T09:25:07.302Z,13.70
2022-12-24T09:27:34.157Z,11.03
2022-12-24T09:30:00.788Z,10.50
2022-12-24T09:32:27.427Z,11.07
2022-12-24T09:34:54.079Z,15.20
2022-12-24T09:37:20.755Z,9.23
2022-12-24T09:39:47.330Z,23.37
2022-12-24T09:42:27.022Z,19.43
2022-12-24T09:45:05.095Z,9.07
2022-12-24T09:47:39.570Z,20.20
2022-12-24T09:50:22.740Z,11.27
2022-12-24T09:52:52.228Z,13.20
2022-12-24T09:55:36.773Z,14.00
2022-12-24T09:58:06.117Z,18.37
2022-12-24T10:00:37.228Z,14.50
2022-12-24T10:03:17.798Z,17.07
2022-12-24T10:06:16.508Z,18.70
2022-12-24T10:08:57.123Z,15.10
2022-12-24T10:11:35.184Z,8.67
2022-12-24T10:14:32.273Z,22.00
2022-12-24T10:17:43.954Z,14.77
2022-12-24T10:20:13.548Z,17.67
2022-12-24T10:22:45.897Z,12.40
2022-12-24T10:25:26.042Z,24.83
2022-12-24T10:27:55.510Z,17.60
2022-12-24T10:30:23.367Z,10.03
2022-12-24T10:32:52.632Z,15.97
2022-12-24T10:35:34.709Z,23.13
2022-12-24T10:38:04.234Z,19.07
2022-12-24T10:40:50.743Z,9.90
2022-12-24T10:43:20.528Z,15.90
2022-12-24T10:45:53.584Z,20.50
2022-12-24T10:48:28.621Z,22.67
2022-12-24T10:51:05.756Z,29.20
2022-12-24T10:53:43.023Z,17.07
2022-12-24T10:56:12.961Z,26.90
2022-12-24T10:58:51.567Z,22.30
2022-12-24T11:01:18.252Z,23.87
2022-12-24T11:03:45.060Z,25.00
2022-12-24T11:06:13.010Z,15.83
2022-12-24T11:08:43.727Z,18.67
2022-12-24T11:11:15.326Z,18.03
2022-12-24T11:13:52.029Z,14.47
2022-12-24T11:16:35.123Z,25.77
2022-12-24T11:19:04.284Z,26.37
2022-12-24T11:21:34.384Z,27.80
2022-12-24T11:24:12.784Z,12.80
2022-12-24T11:26:41.216Z,12.13
2022-12-24T11:29:23.357Z,20.07
2022-12-24T11:31:52.537Z,19.57
2022-12-24T11:34:27.298Z,28.47
2022-12-24T11:37:10.679Z,19.70
2022-12-24T11:39:44.775Z,18.03
2022-12-24T11:42:38.509Z,17.40
2022-12-24T11:45:20.060Z,24.23
2022-12-24T11:47:46.857Z,22.37
2022-12-24T11:50:26.753Z,26.37
2022-12-24T11:53:11.864Z,19.77
2022-12-24T11:55:59.347Z,19.67
2022-12-24T11:58:31.707Z,21.23
2022-12-24T12:01:16.127Z,21.23
2022-12-24T12:03:58.634Z,17.30
2022-12-24T12:06:47.123Z,20.37
2022-12-24T12:09:31.374Z,16.60
2022-12-24T12:12:22.934Z,18.50
2022-12-24T12:14:54.158Z,20.50
2022-12-24T12:18:03.742Z,21.80
2022-12-24T12:20:41.355Z,18.63
2022-12-24T12:23:23.484Z,22.00
2022-12-24T12:26:18.073Z,14.03
2022-12-24T12:29:06.593Z,18.03
2022-12-24T12:31:41.932Z,24.80
2022-12-24T12:34:32.621Z,13.87
2022-12-24T12:37:14.457Z,19.87
2022-12-24T12:39:42.325Z,19.77
2022-12-24T12:42:23.530Z,28.30
2022-12-24T12:45:17.571Z,11.87
2022-12-24T12:48:06.094Z,14.90
2022-12-24T12:51:04.898Z,15.40
2022-12-24T12:54:02.171Z,17.63
2022-12-24T12:56:35.384Z,21.23
2022-12-24T12:59:15.872Z,21.20
2022-12-24T13:02:10.643Z,14.70
2022-12-24T13:05:15.238Z,17.13
2022-12-24T13:08:00.008Z,21.93
2022-12-24T13:10:52.122Z,21.37
2022-12-24T13:13:21.799Z,25.17
2022-12-24T13:15:48.343Z,25.73
2022-12-24T13:18:29.339Z,17.07
2022-12-24T13:20:56.175Z,24.77
2022-12-24T13:23:25.803Z,20.07
2022-12-24T13:25:54.767Z,25.27
2022-12-24T13:28:24.409Z,18.73
2022-12-24T13:30:53.301Z,17.93
2022-12-24T13:33:38.286Z,18.83
2022-12-24T13:36:07.260Z,12.90
2022-12-24T13:38:56.989Z,21.83
2022-12-24T13:41:38.937Z,23.97
2022-12-24T13:44:06.909Z,23.53
2022-12-24T13:46:58.379Z,17.23
2022-12-24T13:49:30.350Z,18.70
2022-12-24T13:52:10.506Z,19.27
2022-12-24T13:54:49.047Z,26.83
2022-12-24T13:57:44.629Z,20.30
2022-12-24T14:00:32.420Z,21.00
2022-12-24T14:03:28.096Z,19.57
2022-12-24T14:06:01.660Z,16.60
2022-12-24T14:08:42.831Z,23.43
2022-12-24T14:11:15.928Z,26.43
2022-12-24T14:13:42.447Z,18.67
2022-12-24T14:16:12.971Z,24.53
2022-12-24T14:18:42.768Z,24.27
2022-12-24T14:21:26.487Z,22.10
2022-12-24T14:24:02.792Z,19.20
2022-12-24T14:26:35.212Z,27.30
2022-12-24T14:29:19.891Z,22.03
2022-12-24T14:31:53.912Z,24.63
2022-12-24T14:34:20.710Z,26.80
2022-12-24T14:36:49.456Z,21.77
2022-12-24T14:39:26.112Z,30.40
2022-12-24T14:42:25.701Z,31.33
2022-12-24T14:45:33.476Z,23.00
2022-12-24T14:48:27.075Z,19.63
2022-12-24T14:51:25.270Z,21.57
2022-12-24T14:53:57.892Z,22.27
2022-12-24T14:56:25.417Z,24.30
2022-12-24T14:58:52.489Z,23.53
2022-12-24T15:01:30.777Z,25.40
2022-12-24T15:04:09.285Z,22.30
2022-12-24T15:06:43.259Z,29.47
2022-12-24T15:09:31.515Z,32.73
2022-12-24T15:12:03.204Z,26.33
2022-12-24T15:14:32.772Z,27.77
2022-12-24T15:17:02.873Z,25.10
2022-12-24T15:19:38.625Z,25.03
2022-12-24T15:22:24.833Z,27.97
2022-12-24T15:24:51.680Z,23.63
2022-12-24T15:27:31.943Z,30.20
2022-12-24T15:29:58.921Z,22.50
2022-12-24T15:32:25.555Z,21.27
2022-12-24T15:34:54.622Z,25.97
2022-12-24T15:37:29.059Z,21.10
2022-12-24T15:40:21.466Z,27.63
2022-12-24T15:42:48.437Z,29.57
2022-12-24T15:45:27.560Z,23.30
2022-12-24T15:48:10.806Z,21.70
2022-12-24T15:50:48.661Z,23.17
2022-12-24T15:53:22.382Z,31.83
2022-12-24T15:56:11.923Z,47.63
2022-12-24T15:58:46.918Z,30.57
2022-12-24T16:01:13.552Z,31.57
2022-12-24T16:03:54.142Z,27.60
2022-12-24T16:06:22.088Z,28.10
2022-12-24T16:08:50.831Z,27.03
2022-12-24T16:11:24.097Z,19.07
2022-12-24T16:13:50.749Z,25.53
2022-12-24T16:16:20.488Z,25.93
2022-12-24T16:18:56.018Z,26.47
2022-12-24T16:21:34.450Z,29.83
2022-12-24T16:24:25.671Z,31.63
2022-12-24T16:26:52.388Z,32.23
2022-12-24T16:29:19.840Z,35.87
2022-12-24T16:31:51.297Z,28.13
2022-12-24T16:34:18.744Z,25.07
2022-12-24T16:36:46.576Z,30.60
2022-12-24T16:39:25.068Z,45.53
2022-12-24T16:42:11.289Z,26.53
2022-12-24T16:44:38.443Z,25.07
2022-12-24T16:47:09.280Z,20.70
2022-12-24T16:49:38.432Z,24.97
2022-12-24T16:52:06.688Z,26.23
2022-12-24T16:54:33.279Z,23.50
2022-12-24T16:56:59.977Z,23.23
2022-12-24T16:59:26.652Z,24.10
2022-12-24T17:01:53.366Z,28.03
2022-12-24T17:04:20.163Z,19.07
2022-12-24T17:06:49.789Z,27.10
2022-12-24T17:09:16.906Z,29.47
2022-12-24T17:11:43.499Z,26.23
2022-12-24T17:14:19.882Z,26.43
2022-12-24T17:16:47.113Z,20.87
2022-12-24T17:19:13.743Z,22.57
2022-12-24T17:21:40.761Z,29.27
2022-12-24T17:24:08.732Z,26.83
2022-12-24T17:26:35.946Z,26.20
2022-12-24T17:29:05.013Z,25.70
2022-12-24T17:31:32.890Z,25.37
2022-12-24T17:33:59.884Z,22.60
2022-12-24T17:36:26.523Z,28.40
2022-12-24T17:38:53.096Z,22.47
2022-12-24T17:41:20.884Z,31.47
2022-12-24T17:43:48.218Z,29.07
2022-12-24T17:46:21.630Z,30.33
2022-12-24T17:48:49.277Z,30.63
2022-12-24T17:51:22.858Z,30.07
2022-12-24T17:53:49.918Z,28.00
2022-12-24T17:56:17.528Z,29.03
2022-12-24T17:58:46.148Z,30.57
2022-12-24T18:01:23.884Z,41.60
2022-12-24T18:03:52.619Z,26.40
2022-12-24T18:06:20.340Z,27.63
2022-12-24T18:08:47.772Z,20.57
2022-12-24T18:11:18.005Z,30.40
2022-12-24T18:13:45.330Z,23.73
2022-12-24T18:16:32.531Z,27.43
2022-12-24T18:19:00.655Z,23.73
2022-12-24T18:21:30.803Z,25.67
2022-12-24T18:23:58.015Z,28.83
2022-12-24T18:26:28.588Z,20.37
2022-12-24T18:28:56.747Z,32.97
2022-12-24T18:31:24.808Z,29.00
2022-12-24T18:33:52.923Z,25.77
2022-12-24T18:36:20.748Z,26.27
2022-12-24T18:38:47.665Z,29.13
2022-12-24T18:41:20.249Z,23.77
2022-12-24T18:43:48.007Z,25.97
2022-12-24T18:46:20.460Z,20.93
2022-12-24T18:48:47.340Z,29.20
2022-12-24T18:51:14.461Z,25.43
2022-12-24T18:53:41.045Z,31.90
2022-12-24T18:56:19.329Z,15.80
2022-12-24T18:58:46.591Z,24.97
2022-12-24T19:01:28.132Z,25.27
2022-12-24T19:03:55.016Z,31.23
2022-12-24T19:06:22.216Z,27.97
2022-12-24T19:08:58.389Z,26.37
2022-12-24T19:11:26.343Z,20.90
2022-12-24T19:13:53.120Z,23.90
2022-12-24T19:16:20.316Z,25.63
2022-12-24T19:18:47.153Z,24.77
2022-12-24T19:21:15.443Z,28.83
2022-12-24T19:23:42.167Z,21.17
2022-12-24T19:26:10.447Z,33.00
2022-12-24T19:28:37.416Z,23.77
2022-12-24T19:31:06.414Z,19.73
2022-12-24T19:33:43.362Z,16.27
2022-12-24T19:36:13.476Z,20.07
2022-12-24T19:38:40.917Z,26.80
2022-12-24T19:41:30.673Z,24.57
2022-12-24T19:44:01.857Z,18.60
2022-12-24T19:46:31.597Z,16.63
2022-12-24T19:49:00.368Z,24.77
2022-12-24T19:51:28.512Z,32.00
2022-12-24T19:53:56.023Z,19.33
2022-12-24T19:56:24.512Z,28.07
2022-12-24T19:58:51.549Z,21.37
2022-12-24T20:01:23.742Z,21.60
2022-12-24T20:03:52.232Z,15.57
2022-12-24T20:06:21.674Z,24.00
2022-12-24T20:08:48.470Z,16.57
2022-12-24T20:11:18.208Z,23.30
2022-12-24T20:13:46.545Z,20.57
2022-12-24T20:16:16.262Z,20.70
2022-12-24T20:18:42.932Z,18.73
2022-12-24T20:21:11.670Z,19.87
2022-12-24T20:23:39.555Z,17.70
2022-12-24T20:26:07.935Z,21.17
2022-12-24T20:28:38.087Z,19.47
2022-12-24T20:31:16.922Z,21.07
2022-12-24T20:33:44.978Z,23.93
2022-12-24T20:36:13.283Z,24.07
2022-12-24T20:38:40.034Z,21.33
2022-12-24T20:41:09.507Z,20.10
2022-12-24T20:43:45.033Z,20.10
2022-12-24T20:46:14.691Z,17.87
2022-12-24T20:48:41.747Z,24.30
2022-12-24T20:51:10.749Z,17.53
2022-12-24T20:53:39.016Z,25.43
2022-12-24T20:56:05.993Z,18.87
2022-12-24T20:58:32.671Z,18.90
2022-12-24T21:00:59.279Z,17.33
2022-12-24T21:03:25.947Z,17.70
2022-12-24T21:05:52.861Z,20.60
2022-12-24T21:08:19.436Z,17.47
2022-12-24T21:10:46.988Z,18.43
2022-12-24T21:13:13.593Z,24.53
2022-12-24T21:15:40.679Z,14.27
2022-12-24T21:18:11.597Z,18.03
2022-12-24T21:20:42.827Z,22.60
2022-12-24T21:23:09.937Z,19.27
2022-12-24T21:25:36.771Z,23.40
2022-12-24T21:28:03.446Z,19.53
2022-12-24T21:30:30.087Z,16.60
2022-12-24T21:32:56.687Z,21.03
2022-12-24T21:35:23.295Z,16.50
2022-12-24T21:37:49.948Z,19.83
2022-12-24T21:40:16.582Z,19.33
2022-12-24T21:42:43.195Z,17.00
2022-12-24T21:45:12.561Z,14.47
2022-12-24T21:47:39.195Z,15.50
2022-12-24T21:50:30.121Z,22.60
2022-12-24T21:53:17.760Z,17.20
2022-12-24T21:55:44.371Z,16.57
2022-12-24T21:58:10.949Z,16.37
2022-12-24T22:00:37.715Z,16.67
2022-12-24T22:03:04.634Z,20.40
2022-12-24T22:05:33.868Z,17.07
2022-12-24T22:08:18.993Z,19.40
2022-12-24T22:11:04.158Z,18.80
2022-12-24T22:13:32.159Z,17.63
2022-12-24T22:15:59.024Z,15.77
2022-12-24T22:18:26.425Z,11.07
2022-12-24T22:20:53.021Z,15.67
2022-12-24T22:23:20.272Z,17.17
2022-12-24T22:25:47.404Z,18.27
2022-12-24T22:28:14.360Z,17.50
2022-12-24T22:30:42.000Z,14.00
2022-12-24T22:33:09.262Z,13.33
2022-12-24T22:35:40.070Z,17.33
2022-12-24T22:38:09.890Z,11.90
2022-12-24T22:40:39.517Z,18.30
2022-12-24T22:43:06.179Z,20.77
2022-12-24T22:45:32.744Z,16.37
2022-12-24T22:47:59.304Z,17.07
2022-12-24T22:50:26.058Z,14.40
2022-12-24T22:52:53.704Z,12.30
2022-12-24T22:55:20.623Z,12.33
2022-12-24T22:57:47.302Z,18.27
2022-12-24T23:00:40.434Z,11.67
2022-12-24T23:03:07.601Z,11.73
2022-12-24T23:05:34.334Z,15.93
2022-12-24T23:08:00.965Z,12.93
2022-12-24T23:10:27.566Z,12.90
2022-12-24T23:13:15.106Z,12.03
2022-12-24T23:15:42.389Z,13.10
2022-12-24T23:18:09.915Z,10.60
2022-12-24T23:20:42.171Z,11.30
2022-12-24T23:23:09.241Z,14.87
2022-12-24T23:25:35.837Z,10.47
2022-12-24T23:28:02.579Z,11.90
2022-12-24T23:30:29.205Z,12.63
2022-12-24T23:32:55.947Z,17.97
2022-12-24T23:35:22.532Z,10.97
2022-12-24T23:37:49.119Z,13.07
2022-12-24T23:40:15.864Z,12.97
2022-12-24T23:42:42.478Z,13.80
2022-12-24T23:45:09.471Z,10.03
2022-12-24T23:47:36.080Z,8.57
2022-12-24T23:50:03.357Z,13.53
2022-12-24T23:52:29.952Z,13.87
2022-12-24T23:54:56.500Z,10.37
2022-12-24T23:57:23.078Z,14.53
2022-12-24T23:59:49.848Z,11.10
